sensor_id;sensor_type;location;lat;lon;timestamp;pressure;altitude;pressure_sealevel;temperature;humidity
40982;BME280;26708;50.304;19.028;2023-05-11T00:06:13;98122.38;;;10.83;40.53
40982;BME280;26708;50.304;19.028;2023-05-11T00:08:17;98352.25;;;12.26;39.85
40982;BME280;26708;50.304;19.028;2023-05-11T00:10:24;98496.72;;;12.89;39.71
40982;BME280;26708;50.304;19.028;2023-05-11T00:12:33;98495.88;;;12.87;41.11
40982;BME280;26708;50.304;19.028;2023-05-11T00:14:38;98235.38;;;11.30;41.49
40982;BME280;26708;50.304;19.028;2023-05-11T00:16:44;98222.34;;;11.26;41.55
40982;BME280;26708;50.304;19.028;2023-05-11T00:18:49;98337.72;;;11.95;41.74
40982;BME280;26708;50.304;19.028;2023-05-11T00:20:54;98429.00;;;12.46;41.75
40982;BME280;26708;50.304;19.028;2023-05-11T00:22:59;98369.88;;;12.16;41.61
40982;BME280;26708;50.304;19.028;2023-05-11T00:25:06;98442.84;;;12.58;41.66
40982;BME280;26708;50.304;19.028;2023-05-11T00:27:14;98283.16;;;11.53;41.71
40982;BME280;26708;50.304;19.028;2023-05-11T00:29:19;98304.81;;;11.70;41.62
40982;BME280;26708;50.304;19.028;2023-05-11T00:31:24;98494.09;;;12.89;41.64
40982;BME280;26708;50.304;19.028;2023-05-11T00:33:32;98323.84;;;11.87;41.04
40982;BME280;26708;50.304;19.028;2023-05-11T00:35:37;98185.09;;;10.98;41.85
40982;BME280;26708;50.304;19.028;2023-05-11T00:37:53;98145.16;;;10.75;41.75
40982;BME280;26708;50.304;19.028;2023-05-11T00:40:31;98116.56;;;10.56;41.79
40982;BME280;26708;50.304;19.028;2023-05-11T00:46:01;98482.81;;;12.80;42.06
40982;BME280;26708;50.304;19.028;2023-05-11T00:48:40;98319.75;;;11.62;41.72
40982;BME280;26708;50.304;19.028;2023-05-11T00:54:55;98143.72;;;10.41;41.37
40982;BME280;26708;50.304;19.028;2023-05-11T00:57:46;98488.47;;;12.48;42.52
40982;BME280;26708;50.304;19.028;2023-05-11T00:59:56;98418.19;;;11.91;41.45
40982;BME280;26708;50.304;19.028;2023-05-11T01:02:02;98411.31;;;11.80;41.57
40982;BME280;26708;50.304;19.028;2023-05-11T01:04:09;98283.81;;;10.89;41.61
40982;BME280;26708;50.304;19.028;2023-05-11T01:06:22;98182.31;;;10.18;41.91
40982;BME280;26708;50.304;19.028;2023-05-11T01:08:43;98147.56;;;9.98;43.37
40982;BME280;26708;50.304;19.028;2023-05-11T01:11:03;98497.53;;;12.19;43.53
40982;BME280;26708;50.304;19.028;2023-05-11T01:13:26;98509.75;;;12.24;43.56
40982;BME280;26708;50.304;19.028;2023-05-11T01:15:45;98179.56;;;10.30;42.03
40982;BME280;26708;50.304;19.028;2023-05-11T01:18:10;98272.53;;;10.76;42.21
40982;BME280;26708;50.304;19.028;2023-05-11T01:20:28;98310.78;;;10.95;42.65
40982;BME280;26708;50.304;19.028;2023-05-11T01:22:54;98190.22;;;10.06;42.43
40982;BME280;26708;50.304;19.028;2023-05-11T01:25:37;98192.97;;;9.88;42.45
40982;BME280;26708;50.304;19.028;2023-05-11T01:31:08;98299.88;;;10.29;43.27
40982;BME280;26708;50.304;19.028;2023-05-11T01:33:29;98351.22;;;10.54;43.49
40982;BME280;26708;50.304;19.028;2023-05-11T01:35:44;98121.03;;;9.05;43.42
40982;BME280;26708;50.304;19.028;2023-05-11T01:37:57;98426.06;;;10.89;43.44
40982;BME280;26708;50.304;19.028;2023-05-11T01:40:12;98424.31;;;10.91;43.58
40982;BME280;26708;50.304;19.028;2023-05-11T01:42:29;98510.53;;;11.27;43.49
40982;BME280;26708;50.304;19.028;2023-05-11T01:44:49;98318.25;;;10.21;43.58
40982;BME280;26708;50.304;19.028;2023-05-11T01:47:03;98286.22;;;9.74;43.73
40982;BME280;26708;50.304;19.028;2023-05-11T01:49:13;98168.00;;;9.18;43.66
40982;BME280;26708;50.304;19.028;2023-05-11T01:51:23;98271.38;;;9.79;43.87
40982;BME280;26708;50.304;19.028;2023-05-11T01:53:36;98317.53;;;9.94;43.86
40982;BME280;26708;50.304;19.028;2023-05-11T01:55:52;98287.06;;;9.79;44.11
40982;BME280;26708;50.304;19.028;2023-05-11T01:58:12;98116.81;;;8.69;44.27
40982;BME280;26708;50.304;19.028;2023-05-11T02:00:26;98201.97;;;9.12;44.36
40982;BME280;26708;50.304;19.028;2023-05-11T02:02:37;98343.66;;;9.94;44.34
40982;BME280;26708;50.304;19.028;2023-05-11T02:04:44;98297.56;;;9.61;44.76
40982;BME280;26708;50.304;19.028;2023-05-11T02:06:54;98511.59;;;10.80;44.87
40982;BME280;26708;50.304;19.028;2023-05-11T02:09:05;98301.06;;;9.54;44.83
40982;BME280;26708;50.304;19.028;2023-05-11T02:11:20;98361.09;;;9.90;44.85
40982;BME280;26708;50.304;19.028;2023-05-11T02:13:29;98281.97;;;9.28;44.96
40982;BME280;26708;50.304;19.028;2023-05-11T02:15:42;98348.94;;;9.79;45.14
40982;BME280;26708;50.304;19.028;2023-05-11T02:17:53;98454.19;;;10.33;45.31
40982;BME280;26708;50.304;19.028;2023-05-11T02:20:02;98272.41;;;9.38;45.72
40982;BME280;26708;50.304;19.028;2023-05-11T02:22:11;98214.16;;;8.98;45.84
40982;BME280;26708;50.304;19.028;2023-05-11T02:24:20;98281.88;;;9.78;46.15
40982;BME280;26708;50.304;19.028;2023-05-11T02:26:38;98106.34;;;8.78;45.41
40982;BME280;26708;50.304;19.028;2023-05-11T02:28:47;98208.03;;;9.17;45.20
40982;BME280;26708;50.304;19.028;2023-05-11T02:31:06;98496.72;;;10.92;44.94
40982;BME280;26708;50.304;19.028;2023-05-11T02:37:24;98156.78;;;8.95;45.59
40982;BME280;26708;50.304;19.028;2023-05-11T02:45:33;98135.84;;;9.03;46.05
40982;BME280;26708;50.304;19.028;2023-05-11T02:51:31;98256.56;;;9.86;46.03
40982;BME280;26708;50.304;19.028;2023-05-11T02:54:03;98127.97;;;9.16;44.68
40982;BME280;26708;50.304;19.028;2023-05-11T02:56:52;98189.66;;;9.46;44.64
40982;BME280;26708;50.304;19.028;2023-05-11T03:02:24;98500.03;;;11.27;44.97
40982;BME280;26708;50.304;19.028;2023-05-11T03:05:09;98131.53;;;8.99;45.18
40982;BME280;26708;50.304;19.028;2023-05-11T03:07:46;98288.72;;;10.01;45.14
40982;BME280;26708;50.304;19.028;2023-05-11T03:10:10;98182.78;;;9.22;45.27
40982;BME280;26708;50.304;19.028;2023-05-11T03:12:31;98313.09;;;10.08;44.77
40982;BME280;26708;50.304;19.028;2023-05-11T03:17:45;98427.16;;;10.43;45.57
40982;BME280;26708;50.304;19.028;2023-05-11T03:20:07;98419.34;;;10.34;45.46
40982;BME280;26708;50.304;19.028;2023-05-11T03:23:10;98098.63;;;8.08;45.60
40982;BME280;26708;50.304;19.028;2023-05-11T03:31:41;98500.38;;;10.45;46.27
40982;BME280;26708;50.304;19.028;2023-05-11T03:33:47;98397.72;;;9.78;46.39
40982;BME280;26708;50.304;19.028;2023-05-11T03:35:53;98147.28;;;8.31;46.66
40982;BME280;26708;50.304;19.028;2023-05-11T03:38:03;98522.22;;;10.32;46.57
40982;BME280;26708;50.304;19.028;2023-05-11T03:40:15;98257.69;;;8.87;47.14
40982;BME280;26708;50.304;19.028;2023-05-11T03:42:37;98423.00;;;9.72;46.88
40982;BME280;26708;50.304;19.028;2023-05-11T03:44:45;98222.06;;;8.65;46.96
40982;BME280;26708;50.304;19.028;2023-05-11T03:46:59;98410.78;;;9.54;47.29
40982;BME280;26708;50.304;19.028;2023-05-11T03:49:07;98457.81;;;9.84;47.65
40982;BME280;26708;50.304;19.028;2023-05-11T03:51:13;98281.16;;;8.86;47.46
40982;BME280;26708;50.304;19.028;2023-05-11T03:53:22;98354.25;;;9.11;47.81
40982;BME280;26708;50.304;19.028;2023-05-11T03:55:28;98202.88;;;8.15;47.83
40982;BME280;26708;50.304;19.028;2023-05-11T03:57:33;98289.00;;;8.75;47.89
40982;BME280;26708;50.304;19.028;2023-05-11T03:59:41;98361.22;;;9.03;48.03
40982;BME280;26708;50.304;19.028;2023-05-11T04:01:50;98262.03;;;8.57;47.89
40982;BME280;26708;50.304;19.028;2023-05-11T04:03:56;98305.53;;;8.94;47.75
40982;BME280;26708;50.304;19.028;2023-05-11T04:06:03;98289.88;;;8.89;48.04
40982;BME280;26708;50.304;19.028;2023-05-11T04:08:12;98510.94;;;10.18;48.17
40982;BME280;26708;50.304;19.028;2023-05-11T04:10:19;98242.03;;;8.65;47.85
40982;BME280;26708;50.304;19.028;2023-05-11T04:12:27;98529.22;;;10.27;47.69
40982;BME280;26708;50.304;19.028;2023-05-11T04:14:38;98354.22;;;9.35;47.79
40982;BME280;26708;50.304;19.028;2023-05-11T04:16:42;98530.06;;;10.29;47.68
40982;BME280;26708;50.304;19.028;2023-05-11T04:18:48;98382.94;;;9.55;47.45
40982;BME280;26708;50.304;19.028;2023-05-11T04:20:53;98517.84;;;10.38;47.30
40982;BME280;26708;50.304;19.028;2023-05-11T04:26:02;98400.38;;;9.68;47.20
40982;BME280;26708;50.304;19.028;2023-05-11T04:28:14;98452.53;;;10.08;47.12
40982;BME280;26708;50.304;19.028;2023-05-11T04:30:19;98400.34;;;9.69;47.22
40982;BME280;26708;50.304;19.028;2023-05-11T04:32:24;98550.97;;;10.44;47.41
40982;BME280;26708;50.304;19.028;2023-05-11T04:34:32;98348.09;;;9.44;47.34
40982;BME280;26708;50.304;19.028;2023-05-11T04:36:40;98319.38;;;9.35;47.36
40982;BME280;26708;50.304;19.028;2023-05-11T04:41:11;98235.09;;;8.86;47.29
40982;BME280;26708;50.304;19.028;2023-05-11T04:45:46;98285.47;;;9.15;47.14
40982;BME280;26708;50.304;19.028;2023-05-11T04:47:59;98525.56;;;10.77;46.95
40982;BME280;26708;50.304;19.028;2023-05-11T04:52:34;98357.63;;;9.79;46.68
40982;BME280;26708;50.304;19.028;2023-05-11T04:54:41;98520.28;;;10.86;47.11
40982;BME280;26708;50.304;19.028;2023-05-11T04:56:48;98538.59;;;10.95;47.09
40982;BME280;26708;50.304;19.028;2023-05-11T05:01:22;98515.78;;;11.20;46.84
40982;BME280;26708;50.304;19.028;2023-05-11T05:03:26;98465.34;;;10.88;46.45
40982;BME280;26708;50.304;19.028;2023-05-11T05:05:31;98524.41;;;11.38;46.41
40982;BME280;26708;50.304;19.028;2023-05-11T05:07:37;98316.50;;;10.23;46.19
40982;BME280;26708;50.304;19.028;2023-05-11T05:09:42;98412.97;;;10.88;46.21
40982;BME280;26708;50.304;19.028;2023-05-11T05:11:53;98479.91;;;11.35;46.08
40982;BME280;26708;50.304;19.028;2023-05-11T05:13:59;98224.19;;;10.06;46.16
40982;BME280;26708;50.304;19.028;2023-05-11T05:16:04;98535.28;;;12.04;45.72
40982;BME280;26708;50.304;19.028;2023-05-11T05:18:09;98440.28;;;11.70;45.14
40982;BME280;26708;50.304;19.028;2023-05-11T05:20:15;98454.00;;;12.02;44.67
40982;BME280;26708;50.304;19.028;2023-05-11T05:22:21;98221.91;;;10.80;43.81
40982;BME280;26708;50.304;19.028;2023-05-11T05:24:27;98455.41;;;12.31;43.15
40982;BME280;26708;50.304;19.028;2023-05-11T05:26:33;98363.19;;;11.87;42.74
40982;BME280;26708;50.304;19.028;2023-05-11T05:28:41;98447.38;;;12.46;42.64
40982;BME280;26708;50.304;19.028;2023-05-11T05:30:46;98387.53;;;12.02;42.51
40982;BME280;26708;50.304;19.028;2023-05-11T05:32:55;98325.56;;;11.91;42.33
40982;BME280;26708;50.304;19.028;2023-05-11T05:35:00;98359.47;;;12.07;42.20
40982;BME280;26708;50.304;19.028;2023-05-11T05:37:05;98269.06;;;11.63;42.18
40982;BME280;26708;50.304;19.028;2023-05-11T05:39:11;98374.97;;;12.27;42.15
40982;BME280;26708;50.304;19.028;2023-05-11T05:41:16;98190.13;;;11.16;42.31
40982;BME280;26708;50.304;19.028;2023-05-11T05:43:24;98525.13;;;13.27;42.71
40982;BME280;26708;50.304;19.028;2023-05-11T05:45:32;98413.81;;;12.67;42.73
40982;BME280;26708;50.304;19.028;2023-05-11T05:47:37;98421.47;;;12.85;42.21
40982;BME280;26708;50.304;19.028;2023-05-11T05:49:45;98253.91;;;11.89;42.15
40982;BME280;26708;50.304;19.028;2023-05-11T05:51:50;98492.69;;;13.29;41.85
40982;BME280;26708;50.304;19.028;2023-05-11T05:53:55;98525.44;;;13.65;41.78
40982;BME280;26708;50.304;19.028;2023-05-11T05:56:03;98524.53;;;13.69;41.53
40982;BME280;26708;50.304;19.028;2023-05-11T05:58:09;98388.03;;;12.96;41.41
40982;BME280;26708;50.304;19.028;2023-05-11T06:00:16;98547.22;;;13.76;41.57
40982;BME280;26708;50.304;19.028;2023-05-11T06:02:31;98260.59;;;12.14;41.71
40982;BME280;26708;50.304;19.028;2023-05-11T06:04:37;98443.53;;;13.36;41.91
40982;BME280;26708;50.304;19.028;2023-05-11T06:06:42;98324.28;;;12.85;41.47
40982;BME280;26708;50.304;19.028;2023-05-11T06:08:47;98325.94;;;12.91;41.39
40982;BME280;26708;50.304;19.028;2023-05-11T06:10:55;98175.72;;;12.16;41.67
40982;BME280;26708;50.304;19.028;2023-05-11T06:13:03;98325.50;;;13.18;41.21
40982;BME280;26708;50.304;19.028;2023-05-11T06:15:08;98337.47;;;13.37;40.85
40982;BME280;26708;50.304;19.028;2023-05-11T06:17:25;98347.00;;;13.42;40.96
40982;BME280;26708;50.304;19.028;2023-05-11T06:19:37;98408.63;;;13.78;40.69
40982;BME280;26708;50.304;19.028;2023-05-11T06:21:44;98398.09;;;13.78;40.47
40982;BME280;26708;50.304;19.028;2023-05-11T06:23:52;98338.81;;;13.59;40.69
40982;BME280;26708;50.304;19.028;2023-05-11T06:26:00;98336.03;;;13.68;40.34
40982;BME280;26708;50.304;19.028;2023-05-11T06:28:07;98537.97;;;14.98;39.97
40982;BME280;26708;50.304;19.028;2023-05-11T06:30:13;98280.28;;;13.48;40.16
40982;BME280;26708;50.304;19.028;2023-05-11T06:32:21;98553.56;;;15.10;39.87
40982;BME280;26708;50.304;19.028;2023-05-11T06:34:26;98381.59;;;14.17;39.65
40982;BME280;26708;50.304;19.028;2023-05-11T06:36:35;98538.28;;;15.25;39.69
40982;BME280;26708;50.304;19.028;2023-05-11T06:38:41;98375.91;;;14.38;39.97
40982;BME280;26708;50.304;19.028;2023-05-11T06:40:45;98342.88;;;14.22;39.55
40982;BME280;26708;50.304;19.028;2023-05-11T06:42:56;98377.34;;;14.51;39.41
40982;BME280;26708;50.304;19.028;2023-05-11T06:45:14;98366.22;;;14.38;39.63
40982;BME280;26708;50.304;19.028;2023-05-11T06:47:21;98548.97;;;15.59;39.46
40982;BME280;26708;50.304;19.028;2023-05-11T06:49:29;98432.94;;;14.80;39.67
40982;BME280;26708;50.304;19.028;2023-05-11T06:51:38;98241.56;;;13.98;39.24
40982;BME280;26708;50.304;19.028;2023-05-11T06:53:45;98243.09;;;14.10;39.12
40982;BME280;26708;50.304;19.028;2023-05-11T06:55:53;98287.19;;;14.40;38.92
40982;BME280;26708;50.304;19.028;2023-05-11T06:57:59;98174.16;;;13.93;38.82
40982;BME280;26708;50.304;19.028;2023-05-11T07:00:10;98395.72;;;15.33;38.84
40982;BME280;26708;50.304;19.028;2023-05-11T07:02:16;98380.00;;;15.28;38.76
40982;BME280;26708;50.304;19.028;2023-05-11T07:04:22;98314.59;;;15.07;38.84
40982;BME280;26708;50.304;19.028;2023-05-11T07:06:27;98388.16;;;15.53;38.34
40982;BME280;26708;50.304;19.028;2023-05-11T07:08:37;98227.47;;;14.77;38.08
40982;BME280;26708;50.304;19.028;2023-05-11T07:10:42;98348.91;;;15.41;38.49
40982;BME280;26708;50.304;19.028;2023-05-11T07:12:47;98330.41;;;15.42;37.91
40982;BME280;26708;50.304;19.028;2023-05-11T07:14:53;98327.28;;;15.27;37.64
40982;BME280;26708;50.304;19.028;2023-05-11T07:17:03;98186.63;;;14.59;37.72
40982;BME280;26708;50.304;19.028;2023-05-11T07:19:19;98161.19;;;14.60;37.08
40982;BME280;26708;50.304;19.028;2023-05-11T07:21:25;98306.63;;;15.44;36.91
40982;BME280;26708;50.304;19.028;2023-05-11T07:23:31;98164.56;;;14.63;36.71
40982;BME280;26708;50.304;19.028;2023-05-11T07:25:40;98414.81;;;16.11;37.41
40982;BME280;26708;50.304;19.028;2023-05-11T07:27:47;98378.44;;;15.88;36.77
40982;BME280;26708;50.304;19.028;2023-05-11T07:29:54;98157.97;;;14.81;36.84
40982;BME280;26708;50.304;19.028;2023-05-11T07:32:00;98454.47;;;16.41;36.36
40982;BME280;26708;50.304;19.028;2023-05-11T07:34:06;98258.53;;;15.34;36.62
40982;BME280;26708;50.304;19.028;2023-05-11T07:36:12;98375.34;;;16.06;36.26
40982;BME280;26708;50.304;19.028;2023-05-11T07:38:21;98272.03;;;15.54;35.93
40982;BME280;26708;50.304;19.028;2023-05-11T07:40:32;98164.31;;;15.07;36.11
40982;BME280;26708;50.304;19.028;2023-05-11T07:42:43;98461.00;;;16.90;35.99
40982;BME280;26708;50.304;19.028;2023-05-11T07:44:48;98336.16;;;16.21;36.17
40982;BME280;26708;50.304;19.028;2023-05-11T07:46:54;98373.34;;;16.44;36.15
40982;BME280;26708;50.304;19.028;2023-05-11T07:48:59;98296.47;;;16.24;35.84
40982;BME280;26708;50.304;19.028;2023-05-11T07:51:06;98519.97;;;17.52;35.81
40982;BME280;26708;50.304;19.028;2023-05-11T07:53:15;98172.84;;;15.49;35.40
40982;BME280;26708;50.304;19.028;2023-05-11T07:55:33;98304.72;;;16.43;35.59
40982;BME280;26708;50.304;19.028;2023-05-11T07:57:45;98308.97;;;16.47;35.61
40982;BME280;26708;50.304;19.028;2023-05-11T07:59:50;98321.22;;;16.49;35.68
40982;BME280;26708;50.304;19.028;2023-05-11T08:02:07;98510.56;;;17.71;35.89
40982;BME280;26708;50.304;19.028;2023-05-11T08:04:12;98252.91;;;16.09;35.65
40982;BME280;26708;50.304;19.028;2023-05-11T08:06:28;98170.88;;;15.84;35.66
40982;BME280;26708;50.304;19.028;2023-05-11T08:08:33;98332.75;;;16.77;35.37
40982;BME280;26708;50.304;19.028;2023-05-11T08:10:55;98119.59;;;15.65;35.07
40982;BME280;26708;50.304;19.028;2023-05-11T08:13:20;98524.59;;;18.00;34.64
40982;BME280;26708;50.304;19.028;2023-05-11T08:15:32;98306.63;;;16.94;34.28
40982;BME280;26708;50.304;19.028;2023-05-11T08:17:38;98462.50;;;17.83;34.19
40982;BME280;26708;50.304;19.028;2023-05-11T08:19:44;98357.72;;;17.22;34.34
40982;BME280;26708;50.304;19.028;2023-05-11T08:21:49;98510.06;;;18.12;34.10
40982;BME280;26708;50.304;19.028;2023-05-11T08:23:54;98388.94;;;17.39;34.08
40982;BME280;26708;50.304;19.028;2023-05-11T08:26:06;98337.47;;;17.21;34.63
40982;BME280;26708;50.304;19.028;2023-05-11T08:28:15;98500.03;;;18.21;34.70
40982;BME280;26708;50.304;19.028;2023-05-11T08:30:28;98296.63;;;17.04;34.05
40982;BME280;26708;50.304;19.028;2023-05-11T08:32:37;98280.44;;;17.13;33.85
40982;BME280;26708;50.304;19.028;2023-05-11T08:34:42;98282.25;;;17.11;33.62
40982;BME280;26708;50.304;19.028;2023-05-11T08:36:48;98358.50;;;17.52;33.70
40982;BME280;26708;50.304;19.028;2023-05-11T08:38:54;98237.47;;;16.80;33.64
40982;BME280;26708;50.304;19.028;2023-05-11T08:41:00;98362.41;;;17.68;33.60
40982;BME280;26708;50.304;19.028;2023-05-11T08:43:17;98491.28;;;18.45;33.19
40982;BME280;26708;50.304;19.028;2023-05-11T08:45:25;98523.91;;;18.47;33.01
40982;BME280;26708;50.304;19.028;2023-05-11T08:47:31;98377.81;;;17.81;33.40
40982;BME280;26708;50.304;19.028;2023-05-11T08:49:39;98445.78;;;18.07;32.93
40982;BME280;26708;50.304;19.028;2023-05-11T08:51:46;98246.25;;;17.07;33.16
40982;BME280;26708;50.304;19.028;2023-05-11T08:53:53;98446.28;;;18.18;33.08
40982;BME280;26708;50.304;19.028;2023-05-11T08:56:00;98488.53;;;18.48;33.27
40982;BME280;26708;50.304;19.028;2023-05-11T08:58:09;98424.63;;;18.05;33.06
40982;BME280;26708;50.304;19.028;2023-05-11T09:00:31;98277.66;;;17.17;33.34
40982;BME280;26708;50.304;19.028;2023-05-11T09:02:53;98488.16;;;18.33;33.54
40982;BME280;26708;50.304;19.028;2023-05-11T09:05:05;98421.59;;;17.91;33.14
40982;BME280;26708;50.304;19.028;2023-05-11T09:07:14;98137.56;;;16.36;33.15
40982;BME280;26708;50.304;19.028;2023-05-11T09:09:21;98361.44;;;17.70;33.08
40982;BME280;26708;50.304;19.028;2023-05-11T09:11:28;98489.88;;;18.35;33.32
40982;BME280;26708;50.304;19.028;2023-05-11T09:13:34;98199.94;;;16.68;33.06
40982;BME280;26708;50.304;19.028;2023-05-11T09:15:54;98320.63;;;17.24;33.07
40982;BME280;26708;50.304;19.028;2023-05-11T09:18:03;98165.53;;;16.43;33.10
40982;BME280;26708;50.304;19.028;2023-05-11T09:20:30;98303.94;;;17.48;33.18
40982;BME280;26708;50.304;19.028;2023-05-11T09:22:55;98171.25;;;16.56;32.90
40982;BME280;26708;50.304;19.028;2023-05-11T09:25:04;98217.94;;;16.84;32.27
40982;BME280;26708;50.304;19.028;2023-05-11T09:27:20;98270.00;;;17.34;32.57
40982;BME280;26708;50.304;19.028;2023-05-11T09:29:38;98466.19;;;18.55;31.94
40982;BME280;26708;50.304;19.028;2023-05-11T09:31:47;98441.88;;;18.43;31.40
40982;BME280;26708;50.304;19.028;2023-05-11T09:34:07;98375.81;;;18.12;31.04
40982;BME280;26708;50.304;19.028;2023-05-11T09:36:22;98469.09;;;18.72;30.51
40982;BME280;26708;50.304;19.028;2023-05-11T09:38:28;98356.09;;;17.96;30.93
40982;BME280;26708;50.304;19.028;2023-05-11T09:40:36;98148.53;;;16.78;31.64
40982;BME280;26708;50.304;19.028;2023-05-11T09:42:43;98221.53;;;17.08;31.17
40982;BME280;26708;50.304;19.028;2023-05-11T09:44:51;98274.84;;;17.46;30.93
40982;BME280;26708;50.304;19.028;2023-05-11T09:47:10;98481.63;;;18.67;30.81
40982;BME280;26708;50.304;19.028;2023-05-11T09:49:16;98133.06;;;16.66;30.99
40982;BME280;26708;50.304;19.028;2023-05-11T09:51:28;98211.88;;;17.07;31.17
40982;BME280;26708;50.304;19.028;2023-05-11T09:53:45;98136.00;;;16.57;30.37
40982;BME280;26708;50.304;19.028;2023-05-11T09:56:45;98317.47;;;17.65;30.08
40982;BME280;26708;50.304;19.028;2023-05-11T09:59:01;98454.34;;;18.64;30.01
40982;BME280;26708;50.304;19.028;2023-05-11T10:01:10;98256.25;;;17.49;30.45
40982;BME280;26708;50.304;19.028;2023-05-11T10:03:26;98180.91;;;17.10;29.81
40982;BME280;26708;50.304;19.028;2023-05-11T10:05:37;98178.72;;;17.21;29.71
40982;BME280;26708;50.304;19.028;2023-05-11T10:07:56;98102.94;;;16.96;27.60
40982;BME280;26708;50.304;19.028;2023-05-11T10:10:04;98246.19;;;17.83;25.29
40982;BME280;26708;50.304;19.028;2023-05-11T10:12:13;98188.59;;;17.41;24.85
40982;BME280;26708;50.304;19.028;2023-05-11T10:14:23;98444.75;;;19.07;24.20
40982;BME280;26708;50.304;19.028;2023-05-11T10:16:31;98443.75;;;19.10;24.85
40982;BME280;26708;50.304;19.028;2023-05-11T10:18:43;98383.91;;;18.80;24.56
40982;BME280;26708;50.304;19.028;2023-05-11T10:20:49;98327.59;;;18.50;23.58
40982;BME280;26708;50.304;19.028;2023-05-11T10:22:54;98235.69;;;17.82;23.88
40982;BME280;26708;50.304;19.028;2023-05-11T10:25:02;98269.09;;;18.09;24.04
40982;BME280;26708;50.304;19.028;2023-05-11T10:27:09;98297.03;;;18.17;23.99
40982;BME280;26708;50.304;19.028;2023-05-11T10:31:36;98243.50;;;18.08;23.18
40982;BME280;26708;50.304;19.028;2023-05-11T10:33:46;98220.38;;;17.90;23.50
40982;BME280;26708;50.304;19.028;2023-05-11T10:35:56;98173.72;;;17.63;23.76
40982;BME280;26708;50.304;19.028;2023-05-11T10:38:08;98238.78;;;18.16;24.34
40982;BME280;26708;50.304;19.028;2023-05-11T10:40:20;98258.53;;;18.30;24.35
40982;BME280;26708;50.304;19.028;2023-05-11T10:43:16;98269.31;;;18.49;23.93
40982;BME280;26708;50.304;19.028;2023-05-11T10:45:50;98116.84;;;17.73;23.75
40982;BME280;26708;50.304;19.028;2023-05-11T10:54:25;98270.97;;;18.28;22.73
40982;BME280;26708;50.304;19.028;2023-05-11T10:57:11;98137.19;;;17.48;23.08
40982;BME280;26708;50.304;19.028;2023-05-11T10:59:41;98230.53;;;18.23;22.65
40982;BME280;26708;50.304;19.028;2023-05-11T11:02:15;98270.56;;;18.40;22.79
40982;BME280;26708;50.304;19.028;2023-05-11T11:04:50;98387.88;;;19.14;22.01
40982;BME280;26708;50.304;19.028;2023-05-11T11:07:26;98251.00;;;18.43;22.81
40982;BME280;26708;50.304;19.028;2023-05-11T11:09:50;98219.50;;;18.35;22.16
40982;BME280;26708;50.304;19.028;2023-05-11T11:12:15;98381.41;;;19.21;22.32
40982;BME280;26708;50.304;19.028;2023-05-11T11:14:55;98087.09;;;17.66;21.76
40982;BME280;26708;50.304;19.028;2023-05-11T11:17:26;98080.06;;;17.42;21.86
40982;BME280;26708;50.304;19.028;2023-05-11T11:19:36;98213.28;;;18.36;22.37
40982;BME280;26708;50.304;19.028;2023-05-11T11:21:43;98363.41;;;19.06;21.94
40982;BME280;26708;50.304;19.028;2023-05-11T11:23:52;98191.25;;;17.90;22.29
40982;BME280;26708;50.304;19.028;2023-05-11T11:25:57;98203.53;;;18.14;22.85
40982;BME280;26708;50.304;19.028;2023-05-11T11:28:03;98407.16;;;19.41;22.87
40982;BME280;26708;50.304;19.028;2023-05-11T11:30:19;98252.81;;;18.42;22.52
40982;BME280;26708;50.304;19.028;2023-05-11T11:32:31;98296.34;;;18.58;22.26
40982;BME280;26708;50.304;19.028;2023-05-11T11:34:39;98430.31;;;19.37;22.21
40982;BME280;26708;50.304;19.028;2023-05-11T11:37:03;98439.75;;;19.44;22.23
40982;BME280;26708;50.304;19.028;2023-05-11T11:39:43;98184.72;;;17.98;21.63
40982;BME280;26708;50.304;19.028;2023-05-11T11:45:31;98291.19;;;18.55;21.74
40982;BME280;26708;50.304;19.028;2023-05-11T11:48:06;98275.66;;;18.68;21.75
40982;BME280;26708;50.304;19.028;2023-05-11T11:50:31;98370.97;;;19.17;21.31
40982;BME280;26708;50.304;19.028;2023-05-11T11:52:39;98150.50;;;17.92;22.07
40982;BME280;26708;50.304;19.028;2023-05-11T11:55:04;98078.59;;;17.58;22.28
40982;BME280;26708;50.304;19.028;2023-05-11T11:57:45;98235.56;;;18.54;22.07
40982;BME280;26708;50.304;19.028;2023-05-11T12:00:08;98414.00;;;19.68;22.18
40982;BME280;26708;50.304;19.028;2023-05-11T12:02:30;98234.69;;;18.53;22.34
40982;BME280;26708;50.304;19.028;2023-05-11T12:04:50;98202.63;;;18.59;22.89
40982;BME280;26708;50.304;19.028;2023-05-11T12:07:09;98214.56;;;18.69;22.26
40982;BME280;26708;50.304;19.028;2023-05-11T12:09:38;98075.00;;;17.82;23.12
40982;BME280;26708;50.304;19.028;2023-05-11T12:12:19;98139.78;;;18.18;22.89
40982;BME280;26708;50.304;19.028;2023-05-11T12:14:29;98422.34;;;19.80;22.77
40982;BME280;26708;50.304;19.028;2023-05-11T12:17:07;98182.81;;;18.46;23.45
40982;BME280;26708;50.304;19.028;2023-05-11T12:19:29;98097.41;;;17.74;23.41
40982;BME280;26708;50.304;19.028;2023-05-11T12:21:34;98082.00;;;17.83;24.06
40982;BME280;26708;50.304;19.028;2023-05-11T12:23:52;98249.75;;;18.74;23.63
40982;BME280;26708;50.304;19.028;2023-05-11T12:26:01;98135.06;;;18.03;23.60
40982;BME280;26708;50.304;19.028;2023-05-11T12:28:18;98108.53;;;18.05;23.95
40982;BME280;26708;50.304;19.028;2023-05-11T12:30:27;98402.13;;;19.76;23.89
40982;BME280;26708;50.304;19.028;2023-05-11T12:32:42;98151.03;;;18.23;23.96
40982;BME280;26708;50.304;19.028;2023-05-11T12:35:19;98242.84;;;18.92;24.04
40982;BME280;26708;50.304;19.028;2023-05-11T12:38:02;98331.97;;;19.40;23.81
40982;BME280;26708;50.304;19.028;2023-05-11T12:40:12;98317.75;;;19.41;23.78
40982;BME280;26708;50.304;19.028;2023-05-11T12:42:33;98081.22;;;18.03;23.87
40982;BME280;26708;50.304;19.028;2023-05-11T12:44:44;98200.09;;;18.78;24.21